sensor_id;sensor_type;location;lat;lon;timestamp;P1;durP1;ratioP1;P2;durP2;ratioP2
44728;SDS011;30457;53.590;9.922;2022-12-29T00:01:30;44.30;;;42.03;;
44728;SDS011;30457;53.590;9.922;2022-12-29T00:05:57;42.13;;;40.03;;
44728;SDS011;30457;53.590;9.922;2022-12-29T00:10:23;45.72;;;43.38;;
44728;SDS011;30457;53.590;9.922;2022-12-29T00:14:48;43.53;;;41.38;;
44728;SDS011;30457;53.590;9.922;2022-12-29T00:19:33;43.70;;;41.53;;
44728;SDS011;30457;53.590;9.922;2022-12-29T00:24:19;43.50;;;41.35;;
44728;SDS011;30457;53.590;9.922;2022-12-29T00:28:52;47.22;;;44.85;;
44728;SDS011;30457;53.590;9.922;2022-12-29T00:33:53;42.40;;;40.10;;
44728;SDS011;30457;53.590;9.922;2022-12-29T00:38:38;43.33;;;41.10;;
44728;SDS011;30457;53.590;9.922;2022-12-29T00:43:27;43.63;;;41.47;;
44728;SDS011;30457;53.590;9.922;2022-12-29T00:48:12;43.78;;;41.55;;
44728;SDS011;30457;53.590;9.922;2022-12-29T00:52:38;44.40;;;42.08;;
44728;SDS011;30457;53.590;9.922;2022-12-29T00:57:04;45.13;;;42.88;;
44728;SDS011;30457;53.590;9.922;2022-12-29T01:01:31;47.30;;;44.92;;
44728;SDS011;30457;53.590;9.922;2022-12-29T01:05:59;50.55;;;48.08;;
44728;SDS011;30457;53.590;9.922;2022-12-29T01:10:26;47.15;;;44.88;;
44728;SDS011;30457;53.590;9.922;2022-12-29T01:14:52;45.80;;;43.58;;
44728;SDS011;30457;53.590;9.922;2022-12-29T01:19:19;46.53;;;44.22;;
44728;SDS011;30457;53.590;9.922;2022-12-29T01:23:44;47.78;;;45.45;;
44728;SDS011;30457;53.590;9.922;2022-12-29T01:28:10;48.35;;;45.70;;
44728;SDS011;30457;53.590;9.922;2022-12-29T01:32:37;46.13;;;43.92;;
44728;SDS011;30457;53.590;9.922;2022-12-29T01:37:02;51.10;;;48.50;;
44728;SDS011;30457;53.590;9.922;2022-12-29T01:41:28;50.17;;;47.75;;
44728;SDS011;30457;53.590;9.922;2022-12-29T01:45:53;49.55;;;46.92;;
44728;SDS011;30457;53.590;9.922;2022-12-29T01:50:20;50.75;;;48.30;;
44728;SDS011;30457;53.590;9.922;2022-12-29T01:54:53;50.67;;;48.17;;
44728;SDS011;30457;53.590;9.922;2022-12-29T01:59:22;48.42;;;46.00;;
44728;SDS011;30457;53.590;9.922;2022-12-29T02:03:52;50.92;;;48.45;;
44728;SDS011;30457;53.590;9.922;2022-12-29T02:08:19;56.63;;;53.85;;
44728;SDS011;30457;53.590;9.922;2022-12-29T02:12:47;52.13;;;49.45;;
44728;SDS011;30457;53.590;9.922;2022-12-29T02:17:20;52.40;;;49.72;;
44728;SDS011;30457;53.590;9.922;2022-12-29T02:31:45;49.03;;;46.67;;
44728;SDS011;30457;53.590;9.922;2022-12-29T02:36:32;51.55;;;48.97;;
44728;SDS011;30457;53.590;9.922;2022-12-29T02:41:21;48.35;;;45.97;;
44728;SDS011;30457;53.590;9.922;2022-12-29T02:46:21;45.30;;;43.13;;
44728;SDS011;30457;53.590;9.922;2022-12-29T02:50:57;52.00;;;49.47;;
44728;SDS011;30457;53.590;9.922;2022-12-29T02:55:29;54.85;;;52.28;;
44728;SDS011;30457;53.590;9.922;2022-12-29T03:00:00;51.95;;;49.25;;
44728;SDS011;30457;53.590;9.922;2022-12-29T03:04:31;51.83;;;49.30;;
44728;SDS011;30457;53.590;9.922;2022-12-29T03:09:27;51.85;;;49.22;;
44728;SDS011;30457;53.590;9.922;2022-12-29T03:14:02;52.25;;;49.72;;
44728;SDS011;30457;53.590;9.922;2022-12-29T03:19:00;55.50;;;52.83;;
44728;SDS011;30457;53.590;9.922;2022-12-29T03:23:31;58.05;;;55.22;;
44728;SDS011;30457;53.590;9.922;2022-12-29T03:28:03;52.40;;;49.80;;
44728;SDS011;30457;53.590;9.922;2022-12-29T03:32:39;55.92;;;53.13;;
44728;SDS011;30457;53.590;9.922;2022-12-29T03:37:22;56.92;;;53.80;;
44728;SDS011;30457;53.590;9.922;2022-12-29T03:41:54;54.35;;;51.60;;
44728;SDS011;30457;53.590;9.922;2022-12-29T03:46:24;53.38;;;50.60;;
44728;SDS011;30457;53.590;9.922;2022-12-29T03:50:51;55.90;;;53.17;;
44728;SDS011;30457;53.590;9.922;2022-12-29T03:55:17;57.42;;;54.53;;
44728;SDS011;30457;53.590;9.922;2022-12-29T03:59:43;59.00;;;56.10;;
44728;SDS011;30457;53.590;9.922;2022-12-29T04:04:09;54.85;;;52.17;;
44728;SDS011;30457;53.590;9.922;2022-12-29T04:08:35;56.45;;;53.72;;
44728;SDS011;30457;53.590;9.922;2022-12-29T04:13:01;56.42;;;53.75;;
44728;SDS011;30457;53.590;9.922;2022-12-29T04:17:27;56.13;;;53.47;;
44728;SDS011;30457;53.590;9.922;2022-12-29T04:21:53;60.53;;;57.65;;
44728;SDS011;30457;53.590;9.922;2022-12-29T04:26:19;54.38;;;51.80;;
44728;SDS011;30457;53.590;9.922;2022-12-29T04:30:53;58.38;;;55.58;;
44728;SDS011;30457;53.590;9.922;2022-12-29T04:35:24;57.63;;;54.78;;
44728;SDS011;30457;53.590;9.922;2022-12-29T04:39:50;60.53;;;57.65;;
44728;SDS011;30457;53.590;9.922;2022-12-29T04:44:16;60.05;;;57.22;;
44728;SDS011;30457;53.590;9.922;2022-12-29T04:48:58;58.65;;;55.85;;
44728;SDS011;30457;53.590;9.922;2022-12-29T04:58:10;59.10;;;56.33;;
44728;SDS011;30457;53.590;9.922;2022-12-29T05:02:36;58.22;;;55.45;;
44728;SDS011;30457;53.590;9.922;2022-12-29T05:07:02;57.85;;;55.13;;
44728;SDS011;30457;53.590;9.922;2022-12-29T05:11:28;59.20;;;56.45;;
44728;SDS011;30457;53.590;9.922;2022-12-29T05:15:54;58.97;;;56.22;;
44728;SDS011;30457;53.590;9.922;2022-12-29T05:20:21;60.00;;;57.17;;
44728;SDS011;30457;53.590;9.922;2022-12-29T05:24:47;67.43;;;64.25;;
44728;SDS011;30457;53.590;9.922;2022-12-29T05:29:14;59.88;;;56.97;;
44728;SDS011;30457;53.590;9.922;2022-12-29T05:33:41;66.53;;;63.38;;
44728;SDS011;30457;53.590;9.922;2022-12-29T05:38:07;65.97;;;62.83;;
44728;SDS011;30457;53.590;9.922;2022-12-29T05:42:32;60.95;;;58.03;;
44728;SDS011;30457;53.590;9.922;2022-12-29T05:47:16;61.35;;;58.45;;
44728;SDS011;30457;53.590;9.922;2022-12-29T05:51:49;62.60;;;59.67;;
44728;SDS011;30457;53.590;9.922;2022-12-29T05:56:15;58.20;;;55.47;;
44728;SDS011;30457;53.590;9.922;2022-12-29T06:00:40;59.10;;;56.33;;
44728;SDS011;30457;53.590;9.922;2022-12-29T06:05:07;56.55;;;53.75;;
44728;SDS011;30457;53.590;9.922;2022-12-29T06:09:35;56.95;;;54.25;;
44728;SDS011;30457;53.590;9.922;2022-12-29T06:14:02;55.55;;;52.92;;
44728;SDS011;30457;53.590;9.922;2022-12-29T06:18:28;52.28;;;49.72;;
44728;SDS011;30457;53.590;9.922;2022-12-29T06:22:55;52.45;;;49.83;;
44728;SDS011;30457;53.590;9.922;2022-12-29T06:27:21;52.13;;;49.63;;
44728;SDS011;30457;53.590;9.922;2022-12-29T06:31:49;50.70;;;48.30;;
44728;SDS011;30457;53.590;9.922;2022-12-29T06:36:16;50.55;;;48.15;;
44728;SDS011;30457;53.590;9.922;2022-12-29T06:40:42;47.75;;;45.42;;
44728;SDS011;30457;53.590;9.922;2022-12-29T06:45:30;46.20;;;44.00;;
44728;SDS011;30457;53.590;9.922;2022-12-29T06:49:55;51.53;;;48.97;;
44728;SDS011;30457;53.590;9.922;2022-12-29T06:54:21;49.47;;;47.15;;
44728;SDS011;30457;53.590;9.922;2022-12-29T06:58:46;48.28;;;45.97;;
44728;SDS011;30457;53.590;9.922;2022-12-29T07:03:12;49.30;;;46.88;;
44728;SDS011;30457;53.590;9.922;2022-12-29T07:07:37;46.40;;;44.22;;
44728;SDS011;30457;53.590;9.922;2022-12-29T07:12:03;49.38;;;47.08;;
44728;SDS011;30457;53.590;9.922;2022-12-29T07:16:29;46.83;;;44.63;;
44728;SDS011;30457;53.590;9.922;2022-12-29T07:20:55;44.47;;;42.40;;
44728;SDS011;30457;53.590;9.922;2022-12-29T07:25:20;41.63;;;39.63;;
44728;SDS011;30457;53.590;9.922;2022-12-29T07:29:46;51.88;;;49.47;;
44728;SDS011;30457;53.590;9.922;2022-12-29T07:34:12;41.78;;;39.83;;
44728;SDS011;30457;53.590;9.922;2022-12-29T07:38:38;41.67;;;39.28;;
44728;SDS011;30457;53.590;9.922;2022-12-29T07:43:03;43.72;;;41.63;;
44728;SDS011;30457;53.590;9.922;2022-12-29T07:47:35;59.60;;;56.60;;
44728;SDS011;30457;53.590;9.922;2022-12-29T07:52:01;39.72;;;37.50;;
44728;SDS011;30457;53.590;9.922;2022-12-29T07:56:27;38.65;;;36.85;;
44728;SDS011;30457;53.590;9.922;2022-12-29T08:00:53;38.35;;;36.35;;
44728;SDS011;30457;53.590;9.922;2022-12-29T08:05:19;36.92;;;35.15;;
44728;SDS011;30457;53.590;9.922;2022-12-29T08:09:45;35.28;;;33.58;;
44728;SDS011;30457;53.590;9.922;2022-12-29T08:14:10;34.35;;;32.67;;
44728;SDS011;30457;53.590;9.922;2022-12-29T08:18:36;30.88;;;29.38;;
44728;SDS011;30457;53.590;9.922;2022-12-29T08:23:02;33.72;;;32.17;;
44728;SDS011;30457;53.590;9.922;2022-12-29T08:27:27;32.65;;;31.13;;
44728;SDS011;30457;53.590;9.922;2022-12-29T08:31:53;36.63;;;34.95;;
44728;SDS011;30457;53.590;9.922;2022-12-29T08:36:18;36.92;;;35.13;;
44728;SDS011;30457;53.590;9.922;2022-12-29T08:40:44;31.77;;;30.30;;
44728;SDS011;30457;53.590;9.922;2022-12-29T08:45:10;32.08;;;30.27;;
44728;SDS011;30457;53.590;9.922;2022-12-29T08:49:35;33.10;;;31.58;;
44728;SDS011;30457;53.590;9.922;2022-12-29T08:54:01;33.10;;;31.60;;
44728;SDS011;30457;53.590;9.922;2022-12-29T08:58:27;31.90;;;30.42;;
44728;SDS011;30457;53.590;9.922;2022-12-29T09:02:53;31.77;;;30.13;;
44728;SDS011;30457;53.590;9.922;2022-12-29T09:07:19;31.27;;;29.83;;
44728;SDS011;30457;53.590;9.922;2022-12-29T09:11:44;32.65;;;30.98;;
44728;SDS011;30457;53.590;9.922;2022-12-29T09:16:10;30.48;;;28.88;;
44728;SDS011;30457;53.590;9.922;2022-12-29T09:20:36;30.98;;;29.55;;
44728;SDS011;30457;53.590;9.922;2022-12-29T09:25:02;29.13;;;27.70;;
44728;SDS011;30457;53.590;9.922;2022-12-29T09:29:28;29.67;;;28.02;;
44728;SDS011;30457;53.590;9.922;2022-12-29T09:33:53;27.67;;;26.38;;
44728;SDS011;30457;53.590;9.922;2022-12-29T09:38:19;49.97;;;47.53;;
44728;SDS011;30457;53.590;9.922;2022-12-29T09:43:32;26.52;;;25.30;;
44728;SDS011;30457;53.590;9.922;2022-12-29T09:47:50;27.42;;;26.08;;
44728;SDS011;30457;53.590;9.922;2022-12-29T09:52:20;28.73;;;27.02;;
44728;SDS011;30457;53.590;9.922;2022-12-29T09:56:50;27.83;;;26.40;;
44728;SDS011;30457;53.590;9.922;2022-12-29T10:01:32;28.67;;;27.13;;
44728;SDS011;30457;53.590;9.922;2022-12-29T10:06:11;38.35;;;36.28;;
44728;SDS011;30457;53.590;9.922;2022-12-29T10:10:57;27.27;;;25.58;;
44728;SDS011;30457;53.590;9.922;2022-12-29T10:24:54;28.48;;;26.85;;
44728;SDS011;30457;53.590;9.922;2022-12-29T10:29:22;28.25;;;26.75;;
44728;SDS011;30457;53.590;9.922;2022-12-29T10:33:53;27.15;;;25.60;;
44728;SDS011;30457;53.590;9.922;2022-12-29T10:38:26;27.75;;;26.10;;
44728;SDS011;30457;53.590;9.922;2022-12-29T10:43:00;26.05;;;24.73;;
44728;SDS011;30457;53.590;9.922;2022-12-29T10:47:32;23.30;;;21.83;;
44728;SDS011;30457;53.590;9.922;2022-12-29T10:52:02;24.83;;;23.42;;
44728;SDS011;30457;53.590;9.922;2022-12-29T10:56:31;34.97;;;32.78;;
44728;SDS011;30457;53.590;9.922;2022-12-29T11:00:59;26.95;;;25.45;;
44728;SDS011;30457;53.590;9.922;2022-12-29T11:05:28;26.58;;;25.10;;
44728;SDS011;30457;53.590;9.922;2022-12-29T11:10:16;26.20;;;24.83;;
44728;SDS011;30457;53.590;9.922;2022-12-29T11:15:26;22.95;;;21.45;;
44728;SDS011;30457;53.590;9.922;2022-12-29T11:19:45;23.15;;;21.45;;
44728;SDS011;30457;53.590;9.922;2022-12-29T11:24:23;28.85;;;27.10;;
44728;SDS011;30457;53.590;9.922;2022-12-29T11:33:40;24.33;;;23.10;;
44728;SDS011;30457;53.590;9.922;2022-12-29T11:38:11;26.17;;;24.73;;
44728;SDS011;30457;53.590;9.922;2022-12-29T11:42:47;21.23;;;20.02;;
44728;SDS011;30457;53.590;9.922;2022-12-29T11:47:21;23.40;;;22.20;;
44728;SDS011;30457;53.590;9.922;2022-12-29T11:51:53;25.08;;;23.80;;
44728;SDS011;30457;53.590;9.922;2022-12-29T11:56:32;23.60;;;22.23;;
44728;SDS011;30457;53.590;9.922;2022-12-29T12:01:01;27.50;;;26.08;;
44728;SDS011;30457;53.590;9.922;2022-12-29T12:05:38;25.02;;;23.45;;
44728;SDS011;30457;53.590;9.922;2022-12-29T12:14:56;23.00;;;21.88;;
44728;SDS011;30457;53.590;9.922;2022-12-29T12:20:02;25.08;;;23.80;;
44728;SDS011;30457;53.590;9.922;2022-12-29T12:28:59;24.83;;;23.20;;
44728;SDS011;30457;53.590;9.922;2022-12-29T12:33:32;25.60;;;24.20;;
44728;SDS011;30457;53.590;9.922;2022-12-29T12:38:08;25.83;;;24.33;;
44728;SDS011;30457;53.590;9.922;2022-12-29T12:57:53;24.02;;;22.80;;
44728;SDS011;30457;53.590;9.922;2022-12-29T13:02:41;25.98;;;24.58;;
44728;SDS011;30457;53.590;9.922;2022-12-29T13:07:30;25.90;;;24.35;;
44728;SDS011;30457;53.590;9.922;2022-12-29T13:12:22;25.40;;;23.50;;
44728;SDS011;30457;53.590;9.922;2022-12-29T13:17:14;25.00;;;23.60;;
44728;SDS011;30457;53.590;9.922;2022-12-29T13:21:57;26.00;;;24.40;;
44728;SDS011;30457;53.590;9.922;2022-12-29T13:36:46;27.42;;;25.70;;
44728;SDS011;30457;53.590;9.922;2022-12-29T13:41:51;25.73;;;24.27;;
44728;SDS011;30457;53.590;9.922;2022-12-29T13:46:21;27.13;;;25.35;;
44728;SDS011;30457;53.590;9.922;2022-12-29T13:50:54;27.90;;;26.08;;
44728;SDS011;30457;53.590;9.922;2022-12-29T13:55:24;30.70;;;28.42;;
44728;SDS011;30457;53.590;9.922;2022-12-29T14:00:03;26.65;;;25.05;;
44728;SDS011;30457;53.590;9.922;2022-12-29T14:04:54;25.45;;;24.17;;
44728;SDS011;30457;53.590;9.922;2022-12-29T14:09:41;31.58;;;29.27;;
44728;SDS011;30457;53.590;9.922;2022-12-29T14:14:21;29.27;;;27.60;;
44728;SDS011;30457;53.590;9.922;2022-12-29T14:18:49;25.85;;;24.40;;
44728;SDS011;30457;53.590;9.922;2022-12-29T14:23:17;25.05;;;23.55;;
44728;SDS011;30457;53.590;9.922;2022-12-29T14:27:54;25.52;;;24.13;;
44728;SDS011;30457;53.590;9.922;2022-12-29T14:37:01;28.17;;;26.60;;
44728;SDS011;30457;53.590;9.922;2022-12-29T14:45:55;24.55;;;23.33;;
44728;SDS011;30457;53.590;9.922;2022-12-29T14:50:25;24.30;;;22.80;;
44728;SDS011;30457;53.590;9.922;2022-12-29T14:59:41;24.60;;;23.23;;
44728;SDS011;30457;53.590;9.922;2022-12-29T15:04:21;26.73;;;25.13;;
44728;SDS011;30457;53.590;9.922;2022-12-29T15:09:53;30.10;;;28.20;;
44728;SDS011;30457;53.590;9.922;2022-12-29T15:13:49;26.13;;;24.63;;
44728;SDS011;30457;53.590;9.922;2022-12-29T15:18:23;25.30;;;23.90;;
44728;SDS011;30457;53.590;9.922;2022-12-29T15:27:28;27.33;;;25.70;;
44728;SDS011;30457;53.590;9.922;2022-12-29T15:31:55;39.08;;;36.50;;
44728;SDS011;30457;53.590;9.922;2022-12-29T15:36:23;24.40;;;23.08;;
44728;SDS011;30457;53.590;9.922;2022-12-29T15:40:52;26.20;;;24.70;;
44728;SDS011;30457;53.590;9.922;2022-12-29T15:45:25;25.40;;;24.15;;
44728;SDS011;30457;53.590;9.922;2022-12-29T15:50:02;26.63;;;24.88;;
44728;SDS011;30457;53.590;9.922;2022-12-29T15:54:30;24.88;;;23.35;;
44728;SDS011;30457;53.590;9.922;2022-12-29T15:58:56;24.60;;;22.80;;
44728;SDS011;30457;53.590;9.922;2022-12-29T16:03:22;26.73;;;25.05;;
44728;SDS011;30457;53.590;9.922;2022-12-29T16:07:52;27.55;;;25.75;;
44728;SDS011;30457;53.590;9.922;2022-12-29T16:12:23;24.35;;;22.75;;
44728;SDS011;30457;53.590;9.922;2022-12-29T16:17:01;26.70;;;25.15;;
44728;SDS011;30457;53.590;9.922;2022-12-29T16:21:30;25.33;;;23.83;;
44728;SDS011;30457;53.590;9.922;2022-12-29T16:25:58;25.98;;;24.50;;
44728;SDS011;30457;53.590;9.922;2022-12-29T16:30:26;25.67;;;24.17;;
44728;SDS011;30457;53.590;9.922;2022-12-29T16:35:09;26.17;;;24.58;;
44728;SDS011;30457;53.590;9.922;2022-12-29T16:39:39;24.75;;;23.25;;
44728;SDS011;30457;53.590;9.922;2022-12-29T16:44:11;26.20;;;24.25;;
44728;SDS011;30457;53.590;9.922;2022-12-29T16:48:47;25.52;;;24.08;;
44728;SDS011;30457;53.590;9.922;2022-12-29T16:53:26;25.23;;;23.73;;
44728;SDS011;30457;53.590;9.922;2022-12-29T16:57:54;30.08;;;27.65;;
44728;SDS011;30457;53.590;9.922;2022-12-29T17:02:21;24.98;;;23.48;;
44728;SDS011;30457;53.590;9.922;2022-12-29T17:06:49;23.58;;;22.35;;
44728;SDS011;30457;53.590;9.922;2022-12-29T17:11:33;25.63;;;24.00;;
44728;SDS011;30457;53.590;9.922;2022-12-29T17:16:17;24.38;;;22.98;;
44728;SDS011;30457;53.590;9.922;2022-12-29T17:20:43;26.45;;;24.33;;
44728;SDS011;30457;53.590;9.922;2022-12-29T17:25:16;25.85;;;23.75;;
44728;SDS011;30457;53.590;9.922;2022-12-29T17:29:44;25.15;;;23.67;;
44728;SDS011;30457;53.590;9.922;2022-12-29T17:34:11;22.90;;;21.45;;
44728;SDS011;30457;53.590;9.922;2022-12-29T17:38:38;24.10;;;22.45;;
44728;SDS011;30457;53.590;9.922;2022-12-29T17:43:03;23.33;;;21.83;;
44728;SDS011;30457;53.590;9.922;2022-12-29T17:47:29;25.40;;;23.85;;
44728;SDS011;30457;53.590;9.922;2022-12-29T17:51:55;25.02;;;23.58;;
44728;SDS011;30457;53.590;9.922;2022-12-29T17:56:21;24.63;;;22.95;;
44728;SDS011;30457;53.590;9.922;2022-12-29T18:00:47;25.17;;;23.38;;
44728;SDS011;30457;53.590;9.922;2022-12-29T18:05:19;24.67;;;22.80;;
44728;SDS011;30457;53.590;9.922;2022-12-29T18:09:49;25.40;;;24.00;;
44728;SDS011;30457;53.590;9.922;2022-12-29T18:14:15;25.88;;;23.50;;
44728;SDS011;30457;53.590;9.922;2022-12-29T18:18:41;26.55;;;24.85;;
44728;SDS011;30457;53.590;9.922;2022-12-29T18:23:27;26.42;;;24.50;;
44728;SDS011;30457;53.590;9.922;2022-12-29T18:28:03;24.77;;;22.83;;
44728;SDS011;30457;53.590;9.922;2022-12-29T18:32:29;25.00;;;23.40;;
44728;SDS011;30457;53.590;9.922;2022-12-29T18:36:55;28.08;;;25.88;;
44728;SDS011;30457;53.590;9.922;2022-12-29T18:41:24;25.30;;;23.70;;
44728;SDS011;30457;53.590;9.922;2022-12-29T18:45:53;26.35;;;24.42;;
44728;SDS011;30457;53.590;9.922;2022-12-29T18:50:19;25.15;;;23.50;;
44728;SDS011;30457;53.590;9.922;2022-12-29T18:54:44;25.23;;;23.85;;
44728;SDS011;30457;53.590;9.922;2022-12-29T18:59:10;25.02;;;23.48;;
44728;SDS011;30457;53.590;9.922;2022-12-29T19:03:36;24.77;;;23.13;;
44728;SDS011;30457;53.590;9.922;2022-12-29T19:08:01;26.13;;;24.73;;
44728;SDS011;30457;53.590;9.922;2022-12-29T19:12:27;26.02;;;24.13;;
44728;SDS011;30457;53.590;9.922;2022-12-29T19:16:53;26.20;;;24.65;;
44728;SDS011;30457;53.590;9.922;2022-12-29T19:21:19;23.38;;;21.88;;
44728;SDS011;30457;53.590;9.922;2022-12-29T19:25:46;27.30;;;25.33;;
44728;SDS011;30457;53.590;9.922;2022-12-29T19:30:12;24.73;;;23.15;;
44728;SDS011;30457;53.590;9.922;2022-12-29T19:34:38;25.52;;;23.85;;
44728;SDS011;30457;53.590;9.922;2022-12-29T19:39:04;25.05;;;23.45;;
44728;SDS011;30457;53.590;9.922;2022-12-29T19:43:30;24.95;;;23.25;;
44728;SDS011;30457;53.590;9.922;2022-12-29T19:47:55;25.33;;;23.75;;
44728;SDS011;30457;53.590;9.922;2022-12-29T19:52:21;26.13;;;24.00;;
44728;SDS011;30457;53.590;9.922;2022-12-29T19:56:47;27.10;;;25.10;;
44728;SDS011;30457;53.590;9.922;2022-12-29T20:01:14;29.17;;;27.40;;
44728;SDS011;30457;53.590;9.922;2022-12-29T20:05:46;45.33;;;42.33;;
44728;SDS011;30457;53.590;9.922;2022-12-29T20:10:12;27.52;;;25.77;;
44728;SDS011;30457;53.590;9.922;2022-12-29T20:14:38;25.67;;;24.30;;
44728;SDS011;30457;53.590;9.922;2022-12-29T20:19:04;23.80;;;22.40;;
44728;SDS011;30457;53.590;9.922;2022-12-29T20:23:30;25.38;;;23.90;;
44728;SDS011;30457;53.590;9.922;2022-12-29T20:27:57;25.15;;;23.75;;
44728;SDS011;30457;53.590;9.922;2022-12-29T20:32:23;26.52;;;25.27;;
44728;SDS011;30457;53.590;9.922;2022-12-29T20:36:49;25.52;;;24.05;;
44728;SDS011;30457;53.590;9.922;2022-12-29T20:41:14;36.33;;;34.58;;
44728;SDS011;30457;53.590;9.922;2022-12-29T20:45:41;24.35;;;23.13;;
44728;SDS011;30457;53.590;9.922;2022-12-29T20:50:06;22.63;;;21.52;;
44728;SDS011;30457;53.590;9.922;2022-12-29T20:54:32;24.30;;;23.00;;
44728;SDS011;30457;53.590;9.922;2022-12-29T20:58:58;25.65;;;24.25;;
44728;SDS011;30457;53.590;9.922;2022-12-29T21:03:24;22.80;;;21.40;;
44728;SDS011;30457;53.590;9.922;2022-12-29T21:07:49;26.98;;;25.17;;
44728;SDS011;30457;53.590;9.922;2022-12-29T21:12:15;25.70;;;23.70;;
44728;SDS011;30457;53.590;9.922;2022-12-29T21:16:41;31.10;;;29.38;;
44728;SDS011;30457;53.590;9.922;2022-12-29T21:21:07;27.20;;;25.67;;
44728;SDS011;30457;53.590;9.922;2022-12-29T21:25:41;28.38;;;26.98;;
44728;SDS011;30457;53.590;9.922;2022-12-29T21:30:07;33.63;;;31.83;;
44728;SDS011;30457;53.590;9.922;2022-12-29T21:34:34;31.63;;;30.00;;
44728;SDS011;30457;53.590;9.922;2022-12-29T21:38:59;31.83;;;29.88;;
44728;SDS011;30457;53.590;9.922;2022-12-29T21:43:27;32.33;;;30.48;;
44728;SDS011;30457;53.590;9.922;2022-12-29T21:47:56;35.20;;;33.40;;
44728;SDS011;30457;53.590;9.922;2022-12-29T21:52:45;34.05;;;32.25;;
44728;SDS011;30457;53.590;9.922;2022-12-29T21:57:11;35.08;;;32.97;;
44728;SDS011;30457;53.590;9.922;2022-12-29T22:01:57;38.55;;;36.63;;
44728;SDS011;30457;53.590;9.922;2022-12-29T22:06:42;33.47;;;31.50;;
44728;SDS011;30457;53.590;9.922;2022-12-29T22:11:26;37.92;;;35.83;;
44728;SDS011;30457;53.590;9.922;2022-12-29T22:16:11;38.10;;;35.90;;
44728;SDS011;30457;53.590;9.922;2022-12-29T22:20:36;38.85;;;36.42;;
44728;SDS011;30457;53.590;9.922;2022-12-29T22:25:02;39.70;;;37.50;;
44728;SDS011;30457;53.590;9.922;2022-12-29T22:29:28;35.40;;;33.35;;
44728;SDS011;30457;53.590;9.922;2022-12-29T22:33:57;37.83;;;35.88;;
44728;SDS011;30457;53.590;9.922;2022-12-29T22:38:25;38.15;;;35.70;;
44728;SDS011;30457;53.590;9.922;2022-12-29T22:42:50;38.00;;;35.95;;
44728;SDS011;30457;53.590;9.922;2022-12-29T22:47:16;36.28;;;34.25;;
44728;SDS011;30457;53.590;9.922;2022-12-29T22:51:41;38.70;;;36.40;;
44728;SDS011;30457;53.590;9.922;2022-12-29T22:56:08;36.65;;;34.55;;
44728;SDS011;30457;53.590;9.922;2022-12-29T23:00:35;35.35;;;33.05;;
44728;SDS011;30457;53.590;9.922;2022-12-29T23:05:01;37.00;;;34.90;;
44728;SDS011;30457;53.590;9.922;2022-12-29T23:09:27;36.28;;;33.55;;
44728;SDS011;30457;53.590;9.922;2022-12-29T23:13:52;34.72;;;32.83;;
44728;SDS011;30457;53.590;9.922;2022-12-29T23:18:18;36.90;;;34.47;;
44728;SDS011;30457;53.590;9.922;2022-12-29T23:22:44;34.70;;;32.90;;
44728;SDS011;30457;53.590;9.922;2022-12-29T23:27:09;34.95;;;33.15;;
44728;SDS011;30457;53.590;9.922;2022-12-29T23:31:35;35.28;;;33.42;;
44728;SDS011;30457;53.590;9.922;2022-12-29T23:36:02;34.25;;;32.10;;
44728;SDS011;30457;53.590;9.922;2022-12-29T23:40:28;37.45;;;35.13;;
44728;SDS011;30457;53.590;9.922;2022-12-29T23:44:54;34.35;;;32.10;;
44728;SDS011;30457;53.590;9.922;2022-12-29T23:49:19;33.28;;;31.50;;
44728;SDS011;30457;53.590;9.922;2022-12-29T23:53:45;34.60;;;32.45;;
44728;SDS011;30457;53.590;9.922;2022-12-29T23:58:11;34.88;;;32.10;;
